createdAt,value
2023-05-21T00:01:42.721Z,16.62
2023-05-21T00:04:45.939Z,16.55
2023-05-21T00:07:48.760Z,16.39
2023-05-21T00:10:51.298Z,16.37
2023-05-21T00:13:54.175Z,16.27
2023-05-21T00:16:56.802Z,16.28
2023-05-21T00:20:00.378Z,16.36
2023-05-21T00:23:03.927Z,16.46
2023-05-21T00:26:06.696Z,16.43
2023-05-21T00:29:09.323Z,16.39
2023-05-21T00:32:12.547Z,16.38
2023-05-21T00:35:16.227Z,16.30
2023-05-21T00:38:19.146Z,16.18
2023-05-21T00:41:23.245Z,16.12
2023-05-21T00:44:27.308Z,15.85
2023-05-21T00:47:30.168Z,15.92
2023-05-21T00:50:33.345Z,15.96
2023-05-21T00:53:36.762Z,15.92
2023-05-21T00:56:39.439Z,15.97
2023-05-21T00:59:42.225Z,16.06
2023-05-21T01:02:46.375Z,16.05
2023-05-21T01:05:53.446Z,16.05
2023-05-21T01:08:57.119Z,16.01
2023-05-21T01:12:01.049Z,15.96
2023-05-21T01:15:05.342Z,16.03
2023-05-21T01:18:09.632Z,16.00
2023-05-21T01:21:12.606Z,15.97
2023-05-21T01:24:16.099Z,15.97
2023-05-21T01:27:18.975Z,15.98
2023-05-21T01:30:23.002Z,16.02
2023-05-21T01:33:39.349Z,15.85
2023-05-21T01:36:49.517Z,15.98
2023-05-21T01:39:57.118Z,16.06
2023-05-21T01:43:00.164Z,16.02
2023-05-21T01:46:06.022Z,16.10
2023-05-21T01:49:09.361Z,16.05
2023-05-21T01:52:13.387Z,16.07
2023-05-21T01:55:17.191Z,16.07
2023-05-21T01:58:21.390Z,16.09
2023-05-21T02:01:24.233Z,16.11
2023-05-21T02:04:27.589Z,15.89
2023-05-21T02:07:32.699Z,15.91
2023-05-21T02:10:37.272Z,15.82
2023-05-21T02:13:42.841Z,15.71
2023-05-21T02:16:46.065Z,15.53
2023-05-21T02:19:48.707Z,15.62
2023-05-21T02:22:51.585Z,15.63
2023-05-21T02:25:54.100Z,15.68
2023-05-21T02:28:57.030Z,15.58
2023-05-21T02:31:59.481Z,15.68
2023-05-21T02:35:04.453Z,15.62
2023-05-21T02:38:09.250Z,15.61
2023-05-21T02:41:13.898Z,15.54
2023-05-21T02:44:16.874Z,15.48
2023-05-21T02:47:20.566Z,15.40
2023-05-21T02:50:23.500Z,15.43
2023-05-21T02:53:33.281Z,15.38
2023-05-21T02:56:35.835Z,15.24
2023-05-21T02:59:38.937Z,15.07
2023-05-21T03:02:42.098Z,14.99
2023-05-21T03:05:46.141Z,15.11
2023-05-21T03:08:48.795Z,14.86
2023-05-21T03:11:51.709Z,14.97
2023-05-21T03:14:54.263Z,15.02
2023-05-21T03:17:57.333Z,14.89
2023-05-21T03:21:00.217Z,14.80
2023-05-21T03:24:03.901Z,14.93
2023-05-21T03:27:07.066Z,14.85
2023-05-21T03:30:10.884Z,14.90
2023-05-21T03:33:27.862Z,14.85
2023-05-21T03:36:31.528Z,15.02
2023-05-21T03:39:34.142Z,15.14
2023-05-21T03:42:37.320Z,15.02
2023-05-21T03:45:42.107Z,15.20
2023-05-21T03:49:06.463Z,15.09
2023-05-21T03:52:11.363Z,15.12
2023-05-21T03:55:14.162Z,15.10
2023-05-21T03:58:16.787Z,15.12
2023-05-21T04:01:19.917Z,15.27
2023-05-21T04:04:25.206Z,15.26
2023-05-21T04:07:30.238Z,15.31
2023-05-21T04:10:32.851Z,15.55
2023-05-21T04:13:35.906Z,15.58
2023-05-21T04:16:39.881Z,15.69
2023-05-21T04:19:43.043Z,15.68
2023-05-21T04:22:45.957Z,15.76
2023-05-21T04:25:51.205Z,15.79
2023-05-21T04:28:55.531Z,15.85
2023-05-21T04:31:58.394Z,16.00
2023-05-21T04:35:02.118Z,15.88
2023-05-21T04:38:05.875Z,15.88
2023-05-21T04:41:10.868Z,16.13
2023-05-21T04:44:17.693Z,16.35
2023-05-21T04:47:21.930Z,16.45
2023-05-21T04:50:24.959Z,16.71
2023-05-21T04:53:27.496Z,16.72
2023-05-21T04:56:30.674Z,16.83
2023-05-21T04:59:33.222Z,16.69
2023-05-21T05:02:36.304Z,16.91
2023-05-21T05:05:39.691Z,17.14
2023-05-21T05:08:43.205Z,17.11
2023-05-21T05:11:46.011Z,17.19
2023-05-21T05:14:49.200Z,17.42
2023-05-21T05:17:52.097Z,17.63
2023-05-21T05:20:55.095Z,17.81
2023-05-21T05:23:57.998Z,18.03
2023-05-21T05:27:03.834Z,18.25
2023-05-21T05:30:07.301Z,18.35
2023-05-21T05:33:10.297Z,18.59
2023-05-21T05:36:13.202Z,18.66
2023-05-21T05:39:16.307Z,18.91
2023-05-21T05:42:18.861Z,18.97
2023-05-21T05:45:21.787Z,19.24
2023-05-21T05:48:24.381Z,19.34
2023-05-21T05:51:27.273Z,19.67
2023-05-21T05:54:29.967Z,19.98
2023-05-21T05:57:32.934Z,20.21
2023-05-21T06:00:39.600Z,20.57
2023-05-21T06:03:42.664Z,20.88
2023-05-21T06:06:51.084Z,20.86
2023-05-21T06:09:55.110Z,21.28
2023-05-21T06:12:57.763Z,21.52
2023-05-21T06:16:00.859Z,21.79
2023-05-21T06:19:03.532Z,21.94
2023-05-21T06:22:06.753Z,22.24
2023-05-21T06:25:10.962Z,22.59
2023-05-21T06:28:14.962Z,22.78
2023-05-21T06:31:17.767Z,23.00
2023-05-21T06:34:21.062Z,23.37
2023-05-21T06:37:25.869Z,23.68
2023-05-21T06:40:29.431Z,24.09
2023-05-21T06:43:34.043Z,24.64
2023-05-21T06:47:03.318Z,25.07
2023-05-21T06:50:06.613Z,25.15
2023-05-21T06:53:09.864Z,25.38
2023-05-21T06:56:13.413Z,25.46
2023-05-21T06:59:20.000Z,25.78
2023-05-21T07:02:22.775Z,26.24
2023-05-21T07:05:25.517Z,26.53
2023-05-21T07:08:30.359Z,27.00
2023-05-21T07:11:34.770Z,26.87
2023-05-21T07:14:38.684Z,27.23
2023-05-21T07:17:41.677Z,27.47
2023-05-21T07:20:44.221Z,27.30
2023-05-21T07:23:50.250Z,27.77
2023-05-21T07:26:54.117Z,27.91
2023-05-21T07:29:57.505Z,27.08
2023-05-21T07:33:00.594Z,27.37
2023-05-21T07:36:05.604Z,27.63
2023-05-21T07:39:08.354Z,27.84
2023-05-21T07:42:12.917Z,28.21
2023-05-21T07:45:16.660Z,27.86
2023-05-21T07:48:20.911Z,28.42
2023-05-21T07:51:33.131Z,28.48
2023-05-21T07:54:36.280Z,28.54
2023-05-21T07:57:39.280Z,28.62
2023-05-21T08:00:48.303Z,28.97
2023-05-21T08:03:51.130Z,29.10
2023-05-21T08:06:54.350Z,29.27
2023-05-21T08:09:57.302Z,29.78
2023-05-21T08:13:00.353Z,30.13
2023-05-21T08:16:03.612Z,30.00
2023-05-21T08:19:06.510Z,29.73
2023-05-21T08:22:08.955Z,29.69
2023-05-21T08:25:14.244Z,29.84
2023-05-21T08:28:17.306Z,30.00
2023-05-21T08:31:20.181Z,30.15
2023-05-21T08:34:23.304Z,30.23
2023-05-21T08:37:37.041Z,30.31
2023-05-21T08:40:53.535Z,30.75
2023-05-21T08:44:00.149Z,30.77
2023-05-21T08:47:05.801Z,31.19
2023-05-21T08:50:11.239Z,31.25
2023-05-21T08:53:24.138Z,31.40
2023-05-21T08:56:32.840Z,31.39
2023-05-21T08:59:37.329Z,31.13
2023-05-21T09:02:44.721Z,31.72
2023-05-21T09:05:48.021Z,31.39
2023-05-21T09:09:00.170Z,31.69
2023-05-21T09:12:13.175Z,31.84
2023-05-21T09:15:16.671Z,32.13
2023-05-21T09:18:19.443Z,31.22
2023-05-21T09:21:34.401Z,31.69
2023-05-21T09:24:45.891Z,31.97
2023-05-21T09:27:49.030Z,32.21
2023-05-21T09:30:54.652Z,31.92
2023-05-21T09:33:57.449Z,31.95
2023-05-21T09:37:02.469Z,31.68
2023-05-21T09:40:14.049Z,32.41
2023-05-21T09:43:17.313Z,32.34
2023-05-21T09:46:25.846Z,32.17
2023-05-21T09:49:28.566Z,32.57
2023-05-21T09:52:37.026Z,32.13
2023-05-21T09:55:39.937Z,32.50
2023-05-21T09:58:43.608Z,32.86
2023-05-21T10:01:46.376Z,32.93
2023-05-21T10:04:51.309Z,33.17
2023-05-21T10:07:59.337Z,33.24
2023-05-21T10:11:03.639Z,33.32
2023-05-21T10:14:07.791Z,32.99
2023-05-21T10:17:12.827Z,32.42
2023-05-21T10:20:16.580Z,32.75
2023-05-21T10:23:20.654Z,33.20
2023-05-21T10:26:24.698Z,32.13
2023-05-21T10:29:28.483Z,31.96
2023-05-21T10:32:31.803Z,31.43
2023-05-21T10:35:35.179Z,30.74
2023-05-21T10:38:39.251Z,31.67
2023-05-21T10:42:05.986Z,32.55
2023-05-21T10:45:33.977Z,32.58
2023-05-21T10:49:06.845Z,32.15
2023-05-21T10:52:36.538Z,32.50
2023-05-21T10:55:52.890Z,32.03
2023-05-21T10:59:27.175Z,33.18
2023-05-21T11:02:30.136Z,33.38
2023-05-21T11:05:41.405Z,33.32
2023-05-21T11:08:48.138Z,32.56
2023-05-21T11:11:58.260Z,32.08
2023-05-21T11:15:00.855Z,31.47
2023-05-21T11:18:03.918Z,31.77
2023-05-21T11:21:17.959Z,31.80
2023-05-21T11:24:20.973Z,32.37
2023-05-21T11:27:40.051Z,31.97
2023-05-21T11:30:42.867Z,30.73
2023-05-21T11:33:48.113Z,32.46
2023-05-21T11:37:16.850Z,32.87
2023-05-21T11:40:27.296Z,31.64
2023-05-21T11:43:29.841Z,31.65
2023-05-21T11:46:34.519Z,32.74
2023-05-21T11:49:38.039Z,32.19
2023-05-21T11:52:44.680Z,33.37
2023-05-21T11:55:47.971Z,32.99
2023-05-21T11:58:51.070Z,33.58
2023-05-21T12:01:54.394Z,32.91
2023-05-21T12:05:00.822Z,33.44
2023-05-21T12:08:06.449Z,33.80
2023-05-21T12:11:09.286Z,33.55
2023-05-21T12:14:11.993Z,34.18
2023-05-21T12:17:20.158Z,33.13
2023-05-21T12:20:28.192Z,33.61
2023-05-21T12:23:31.798Z,33.94
2023-05-21T12:26:35.542Z,33.82
2023-05-21T12:29:40.320Z,34.03
2023-05-21T12:32:44.450Z,32.96
2023-05-21T12:35:50.545Z,32.92
2023-05-21T12:38:53.440Z,32.48
2023-05-21T12:41:56.089Z,30.93
2023-05-21T12:44:59.023Z,31.37
2023-05-21T12:48:02.604Z,31.36
2023-05-21T12:51:05.250Z,30.66
2023-05-21T12:54:14.257Z,30.82
2023-05-21T12:57:19.010Z,31.63
2023-05-21T13:00:25.153Z,32.17
2023-05-21T13:03:27.694Z,31.85
2023-05-21T13:06:31.857Z,30.24
2023-05-21T13:09:34.680Z,30.46
2023-05-21T13:12:37.539Z,31.12
2023-05-21T13:15:40.375Z,30.54
2023-05-21T13:18:43.159Z,31.15
2023-05-21T13:21:46.316Z,30.40
2023-05-21T13:24:49.617Z,29.87
2023-05-21T13:27:52.998Z,29.50
2023-05-21T13:30:56.555Z,29.73
2023-05-21T13:33:59.029Z,30.66
2023-05-21T13:37:01.778Z,29.78
2023-05-21T13:40:05.913Z,30.90
2023-05-21T13:43:08.953Z,31.19
2023-05-21T13:46:11.473Z,31.39
2023-05-21T13:49:14.393Z,30.58
2023-05-21T13:52:17.175Z,30.62
2023-05-21T13:55:20.280Z,30.83
2023-05-21T13:58:22.732Z,31.24
2023-05-21T14:01:26.048Z,31.13
2023-05-21T14:04:28.626Z,30.82
2023-05-21T14:07:31.706Z,31.08
2023-05-21T14:10:34.377Z,30.63
2023-05-21T14:13:37.166Z,30.91
2023-05-21T14:16:40.150Z,30.61
2023-05-21T14:19:42.780Z,29.34
2023-05-21T14:22:45.779Z,29.48
2023-05-21T14:25:48.826Z,29.26
2023-05-21T14:28:51.285Z,29.50
2023-05-21T14:31:54.152Z,29.78
2023-05-21T14:34:56.890Z,29.85
2023-05-21T14:37:59.606Z,29.83
2023-05-21T14:41:02.249Z,29.70
2023-05-21T14:44:05.100Z,29.76
2023-05-21T14:47:07.753Z,28.47
2023-05-21T14:50:10.759Z,28.66
2023-05-21T14:53:13.503Z,28.48
2023-05-21T14:56:16.516Z,28.76
2023-05-21T14:59:18.958Z,28.85
2023-05-21T15:02:22.240Z,28.12
2023-05-21T15:05:29.574Z,28.05
2023-05-21T15:08:32.198Z,28.27
2023-05-21T15:11:36.004Z,28.42
2023-05-21T15:14:38.594Z,28.47
2023-05-21T15:17:41.193Z,28.47
2023-05-21T15:20:44.014Z,28.38
2023-05-21T15:23:46.972Z,28.11
2023-05-21T15:26:49.931Z,28.22
2023-05-21T15:29:53.098Z,28.24
2023-05-21T15:32:55.849Z,28.25
2023-05-21T15:35:58.317Z,28.03
2023-05-21T15:39:03.912Z,27.89
2023-05-21T15:42:06.562Z,27.93
2023-05-21T15:45:09.553Z,27.78
2023-05-21T15:48:13.023Z,27.62
2023-05-21T15:51:15.840Z,27.59
2023-05-21T15:54:18.401Z,27.63
2023-05-21T15:57:21.298Z,27.85
2023-05-21T16:00:23.735Z,27.65
2023-05-21T16:03:26.657Z,27.46
2023-05-21T16:06:29.902Z,27.37
2023-05-21T16:09:32.728Z,27.26
2023-05-21T16:12:35.402Z,27.12
2023-05-21T16:15:38.366Z,26.87
2023-05-21T16:18:41.167Z,26.76
2023-05-21T16:21:43.768Z,26.78
2023-05-21T16:24:48.084Z,26.69
2023-05-21T16:27:50.953Z,26.56
2023-05-21T16:30:53.415Z,26.44
2023-05-21T16:33:56.212Z,26.23
2023-05-21T16:36:58.742Z,26.34
2023-05-21T16:40:01.667Z,26.35
2023-05-21T16:43:04.323Z,26.13
2023-05-21T16:46:06.956Z,25.81
2023-05-21T16:49:09.833Z,25.65
2023-05-21T16:52:12.506Z,25.50
2023-05-21T16:55:15.243Z,25.16
2023-05-21T16:58:19.358Z,25.31
2023-05-21T17:01:22.301Z,25.35
2023-05-21T17:04:25.326Z,25.12
2023-05-21T17:07:27.801Z,24.97
2023-05-21T17:10:33.101Z,24.62
2023-05-21T17:13:35.743Z,24.59
2023-05-21T17:16:38.668Z,24.57
2023-05-21T17:19:42.090Z,24.42
2023-05-21T17:22:46.562Z,24.36
2023-05-21T17:25:49.648Z,24.25
2023-05-21T17:28:52.494Z,24.22
2023-05-21T17:31:55.128Z,23.97
2023-05-21T17:34:58.060Z,23.85
2023-05-21T17:38:00.593Z,23.88
2023-05-21T17:41:03.541Z,23.80
2023-05-21T17:44:06.264Z,23.48
2023-05-21T17:47:09.013Z,23.25
2023-05-21T17:50:11.754Z,23.08
2023-05-21T17:53:15.269Z,22.84
2023-05-21T17:56:17.931Z,22.70
2023-05-21T17:59:21.845Z,22.44
2023-05-21T18:02:24.369Z,22.37
2023-05-21T18:05:27.201Z,22.27
2023-05-21T18:08:29.742Z,22.19
2023-05-21T18:11:32.585Z,22.15
2023-05-21T18:14:35.412Z,22.02
2023-05-21T18:17:38.137Z,21.81
2023-05-21T18:20:41.006Z,21.80
2023-05-21T18:23:43.669Z,21.61
2023-05-21T18:26:46.852Z,21.48
2023-05-21T18:29:51.822Z,21.52
2023-05-21T18:32:54.490Z,21.47
2023-05-21T18:35:57.833Z,21.33
2023-05-21T18:39:00.309Z,21.20
2023-05-21T18:42:12.688Z,21.13
2023-05-21T18:45:16.305Z,21.15
2023-05-21T18:48:19.141Z,20.98
2023-05-21T18:51:21.687Z,20.86
2023-05-21T18:54:24.318Z,20.70
2023-05-21T18:57:26.947Z,20.65
2023-05-21T19:00:29.762Z,20.57
2023-05-21T19:03:32.326Z,20.42
2023-05-21T19:06:35.118Z,20.33
2023-05-21T19:09:37.765Z,20.33
2023-05-21T19:12:42.094Z,20.29
2023-05-21T19:15:47.058Z,20.28
2023-05-21T19:18:49.912Z,20.30
2023-05-21T19:21:53.012Z,20.16
2023-05-21T19:24:55.832Z,20.15
2023-05-21T19:27:58.715Z,20.08
2023-05-21T19:31:01.836Z,20.07
2023-05-21T19:34:10.337Z,19.98
2023-05-21T19:37:13.220Z,19.86
2023-05-21T19:40:17.745Z,19.75
2023-05-21T19:43:21.613Z,19.69
2023-05-21T19:46:24.441Z,19.55
2023-05-21T19:49:27.343Z,19.43
2023-05-21T19:52:30.228Z,19.31
2023-05-21T19:55:35.654Z,19.25
2023-05-21T19:58:38.555Z,19.33
2023-05-21T20:01:43.615Z,19.27
2023-05-21T20:04:46.132Z,19.26
2023-05-21T20:07:49.111Z,19.21
2023-05-21T20:10:52.162Z,19.21
2023-05-21T20:13:55.082Z,19.18
2023-05-21T20:16:58.607Z,19.24
2023-05-21T20:20:03.864Z,19.16
2023-05-21T20:23:06.581Z,19.14
2023-05-21T20:26:09.261Z,19.09
2023-05-21T20:29:12.152Z,19.10
2023-05-21T20:32:14.915Z,19.09
2023-05-21T20:35:17.340Z,18.98
2023-05-21T20:38:21.192Z,18.89
2023-05-21T20:41:25.312Z,18.81
2023-05-21T20:44:29.129Z,18.72
2023-05-21T20:47:31.994Z,18.73
2023-05-21T20:50:35.224Z,18.67
2023-05-21T20:53:37.921Z,18.62
2023-05-21T20:56:42.457Z,18.53
2023-05-21T20:59:45.635Z,18.46
2023-05-21T21:02:48.710Z,18.51
2023-05-21T21:05:52.893Z,18.37
2023-05-21T21:08:56.178Z,18.26
2023-05-21T21:12:06.239Z,18.19
2023-05-21T21:15:14.506Z,18.13
2023-05-21T21:18:17.632Z,18.10
2023-05-21T21:21:20.647Z,18.01
2023-05-21T21:24:23.507Z,18.06
2023-05-21T21:27:26.346Z,18.01
2023-05-21T21:30:29.174Z,17.98
2023-05-21T21:33:32.563Z,17.93
2023-05-21T21:36:35.120Z,17.90
2023-05-21T21:39:37.804Z,17.88
2023-05-21T21:42:42.236Z,17.83
2023-05-21T21:45:45.013Z,17.82
2023-05-21T21:48:47.980Z,17.74
2023-05-21T21:51:51.548Z,17.68
2023-05-21T21:54:55.590Z,17.47
2023-05-21T21:57:58.245Z,17.43
2023-05-21T22:01:01.243Z,17.40
2023-05-21T22:04:04.157Z,17.25
2023-05-21T22:07:06.612Z,17.27
2023-05-21T22:10:09.826Z,17.28
2023-05-21T22:13:12.858Z,17.34
2023-05-21T22:16:15.500Z,17.27
2023-05-21T22:19:20.577Z,17.26
2023-05-21T22:22:23.435Z,17.21
2023-05-21T22:25:26.188Z,17.17
2023-05-21T22:28:28.799Z,17.22
2023-05-21T22:31:31.959Z,17.16
2023-05-21T22:34:34.707Z,17.10
2023-05-21T22:37:37.486Z,17.21
2023-05-21T22:40:40.267Z,17.19
2023-05-21T22:43:42.888Z,17.25
2023-05-21T22:46:47.936Z,17.20
2023-05-21T22:49:53.472Z,17.16
2023-05-21T22:52:56.418Z,17.16
2023-05-21T22:55:59.007Z,17.19
2023-05-21T22:59:01.586Z,17.24
2023-05-21T23:02:04.391Z,17.23
2023-05-21T23:05:07.479Z,17.23
2023-05-21T23:08:09.963Z,17.17
2023-05-21T23:11:12.844Z,17.09
2023-05-21T23:14:15.281Z,17.07
2023-05-21T23:17:18.005Z,17.04
2023-05-21T23:20:21.712Z,17.02
2023-05-21T23:23:24.498Z,16.95
2023-05-21T23:26:27.110Z,16.95
2023-05-21T23:29:30.477Z,16.89
2023-05-21T23:32:33.353Z,16.65
2023-05-21T23:35:36.303Z,16.52
2023-05-21T23:38:38.852Z,16.42
2023-05-21T23:41:41.729Z,16.40
2023-05-21T23:44:44.490Z,16.42
2023-05-21T23:47:47.297Z,16.27
2023-05-21T23:50:50.039Z,16.08
2023-05-21T23:53:52.737Z,16.00
2023-05-21T23:56:55.303Z,15.58
2023-05-21T23:59:57.963Z,15.56
